sensor_id;sensor_type;location;lat;lon;timestamp;P1;durP1;ratioP1;P2;durP2;ratioP2
22826;SDS011;11580;52.562;13.418;2022-10-15T00:01:15;16.97;;;15.37;;
22826;SDS011;11580;52.562;13.418;2022-10-15T00:03:45;15.67;;;14.27;;
22826;SDS011;11580;52.562;13.418;2022-10-15T00:06:13;17.53;;;15.97;;
22826;SDS011;11580;52.562;13.418;2022-10-15T00:08:42;16.30;;;14.80;;
22826;SDS011;11580;52.562;13.418;2022-10-15T00:11:11;16.67;;;15.27;;
22826;SDS011;11580;52.562;13.418;2022-10-15T00:13:40;17.30;;;15.80;;
22826;SDS011;11580;52.562;13.418;2022-10-15T00:16:08;16.33;;;14.90;;
22826;SDS011;11580;52.562;13.418;2022-10-15T00:18:39;15.43;;;14.13;;
22826;SDS011;11580;52.562;13.418;2022-10-15T00:21:09;16.37;;;14.97;;
22826;SDS011;11580;52.562;13.418;2022-10-15T00:23:40;15.53;;;13.93;;
22826;SDS011;11580;52.562;13.418;2022-10-15T00:26:09;16.60;;;15.20;;
22826;SDS011;11580;52.562;13.418;2022-10-15T00:28:40;17.07;;;15.43;;
22826;SDS011;11580;52.562;13.418;2022-10-15T00:31:08;15.90;;;14.57;;
22826;SDS011;11580;52.562;13.418;2022-10-15T00:33:38;14.80;;;13.40;;
22826;SDS011;11580;52.562;13.418;2022-10-15T00:36:09;18.30;;;16.60;;
22826;SDS011;11580;52.562;13.418;2022-10-15T00:38:40;16.30;;;14.87;;
22826;SDS011;11580;52.562;13.418;2022-10-15T00:41:10;15.73;;;14.47;;
22826;SDS011;11580;52.562;13.418;2022-10-15T00:43:42;15.73;;;14.43;;
22826;SDS011;11580;52.562;13.418;2022-10-15T00:46:17;16.57;;;15.10;;
22826;SDS011;11580;52.562;13.418;2022-10-15T00:48:52;16.40;;;15.03;;
22826;SDS011;11580;52.562;13.418;2022-10-15T00:51:28;16.97;;;15.47;;
22826;SDS011;11580;52.562;13.418;2022-10-15T00:54:00;16.27;;;14.90;;
22826;SDS011;11580;52.562;13.418;2022-10-15T00:56:28;17.33;;;15.83;;
22826;SDS011;11580;52.562;13.418;2022-10-15T00:58:58;17.13;;;15.63;;
22826;SDS011;11580;52.562;13.418;2022-10-15T01:01:27;16.43;;;15.07;;
22826;SDS011;11580;52.562;13.418;2022-10-15T01:03:55;18.33;;;16.73;;
22826;SDS011;11580;52.562;13.418;2022-10-15T01:06:23;17.30;;;15.70;;
22826;SDS011;11580;52.562;13.418;2022-10-15T01:08:52;16.90;;;15.50;;
22826;SDS011;11580;52.562;13.418;2022-10-15T01:11:27;17.03;;;15.53;;
22826;SDS011;11580;52.562;13.418;2022-10-15T01:14:08;16.03;;;14.47;;
22826;SDS011;11580;52.562;13.418;2022-10-15T01:16:53;15.90;;;14.50;;
22826;SDS011;11580;52.562;13.418;2022-10-15T01:19:39;15.13;;;13.90;;
22826;SDS011;11580;52.562;13.418;2022-10-15T01:22:38;16.03;;;14.43;;
22826;SDS011;11580;52.562;13.418;2022-10-15T01:25:22;15.63;;;14.23;;
22826;SDS011;11580;52.562;13.418;2022-10-15T01:28:06;14.90;;;13.70;;
22826;SDS011;11580;52.562;13.418;2022-10-15T01:30:58;15.10;;;13.80;;
22826;SDS011;11580;52.562;13.418;2022-10-15T01:33:33;14.80;;;13.57;;
22826;SDS011;11580;52.562;13.418;2022-10-15T01:36:12;16.00;;;14.40;;
22826;SDS011;11580;52.562;13.418;2022-10-15T01:38:46;14.70;;;13.40;;
22826;SDS011;11580;52.562;13.418;2022-10-15T01:41:24;15.80;;;14.50;;
22826;SDS011;11580;52.562;13.418;2022-10-15T01:43:59;15.17;;;13.77;;
22826;SDS011;11580;52.562;13.418;2022-10-15T01:46:56;15.90;;;14.50;;
22826;SDS011;11580;52.562;13.418;2022-10-15T01:49:29;14.73;;;13.33;;
22826;SDS011;11580;52.562;13.418;2022-10-15T01:52:05;14.87;;;13.57;;
22826;SDS011;11580;52.562;13.418;2022-10-15T01:54:37;15.70;;;14.20;;
22826;SDS011;11580;52.562;13.418;2022-10-15T01:57:06;15.10;;;13.70;;
22826;SDS011;11580;52.562;13.418;2022-10-15T01:59:35;15.30;;;13.83;;
22826;SDS011;11580;52.562;13.418;2022-10-15T02:02:04;15.13;;;13.73;;
22826;SDS011;11580;52.562;13.418;2022-10-15T02:04:31;16.13;;;13.57;;
22826;SDS011;11580;52.562;13.418;2022-10-15T02:07:01;14.57;;;13.17;;
22826;SDS011;11580;52.562;13.418;2022-10-15T02:09:35;15.37;;;13.87;;
22826;SDS011;11580;52.562;13.418;2022-10-15T02:12:16;15.27;;;14.00;;
22826;SDS011;11580;52.562;13.418;2022-10-15T02:15:03;14.70;;;13.50;;
22826;SDS011;11580;52.562;13.418;2022-10-15T02:17:39;14.10;;;12.67;;
22826;SDS011;11580;52.562;13.418;2022-10-15T02:20:17;15.20;;;13.83;;
22826;SDS011;11580;52.562;13.418;2022-10-15T02:22:53;14.53;;;13.40;;
22826;SDS011;11580;52.562;13.418;2022-10-15T02:25:28;16.30;;;14.90;;
22826;SDS011;11580;52.562;13.418;2022-10-15T02:27:59;14.37;;;13.07;;
22826;SDS011;11580;52.562;13.418;2022-10-15T02:30:30;14.67;;;13.37;;
22826;SDS011;11580;52.562;13.418;2022-10-15T02:33:02;14.30;;;13.00;;
22826;SDS011;11580;52.562;13.418;2022-10-15T02:35:30;14.57;;;13.30;;
22826;SDS011;11580;52.562;13.418;2022-10-15T02:38:00;14.10;;;12.90;;
22826;SDS011;11580;52.562;13.418;2022-10-15T02:40:33;14.30;;;12.80;;
22826;SDS011;11580;52.562;13.418;2022-10-15T02:43:03;14.77;;;13.50;;
22826;SDS011;11580;52.562;13.418;2022-10-15T02:45:34;15.30;;;13.97;;
22826;SDS011;11580;52.562;13.418;2022-10-15T02:48:03;15.50;;;14.20;;
22826;SDS011;11580;52.562;13.418;2022-10-15T02:50:32;14.17;;;12.97;;
22826;SDS011;11580;52.562;13.418;2022-10-15T02:52:59;15.23;;;13.83;;
22826;SDS011;11580;52.562;13.418;2022-10-15T02:55:26;15.20;;;13.80;;
22826;SDS011;11580;52.562;13.418;2022-10-15T02:57:54;15.47;;;14.17;;
22826;SDS011;11580;52.562;13.418;2022-10-15T03:00:21;15.27;;;13.87;;
22826;SDS011;11580;52.562;13.418;2022-10-15T03:02:48;17.57;;;15.80;;
22826;SDS011;11580;52.562;13.418;2022-10-15T03:05:18;15.07;;;13.70;;
22826;SDS011;11580;52.562;13.418;2022-10-15T03:07:46;15.07;;;13.73;;
22826;SDS011;11580;52.562;13.418;2022-10-15T03:10:13;15.87;;;14.57;;
22826;SDS011;11580;52.562;13.418;2022-10-15T03:12:42;16.00;;;14.60;;
22826;SDS011;11580;52.562;13.418;2022-10-15T03:15:10;15.37;;;13.97;;
22826;SDS011;11580;52.562;13.418;2022-10-15T03:17:38;15.13;;;13.73;;
22826;SDS011;11580;52.562;13.418;2022-10-15T03:20:05;14.57;;;13.37;;
22826;SDS011;11580;52.562;13.418;2022-10-15T03:22:37;15.23;;;13.80;;
22826;SDS011;11580;52.562;13.418;2022-10-15T03:25:04;14.77;;;13.53;;
22826;SDS011;11580;52.562;13.418;2022-10-15T03:27:32;14.33;;;13.10;;
22826;SDS011;11580;52.562;13.418;2022-10-15T03:29:59;15.17;;;13.87;;
22826;SDS011;11580;52.562;13.418;2022-10-15T03:32:31;14.57;;;13.27;;
22826;SDS011;11580;52.562;13.418;2022-10-15T03:34:58;13.73;;;12.60;;
22826;SDS011;11580;52.562;13.418;2022-10-15T03:37:26;15.10;;;13.70;;
22826;SDS011;11580;52.562;13.418;2022-10-15T03:39:55;15.13;;;13.73;;
22826;SDS011;11580;52.562;13.418;2022-10-15T03:42:26;16.00;;;14.60;;
22826;SDS011;11580;52.562;13.418;2022-10-15T03:44:53;15.17;;;13.87;;
22826;SDS011;11580;52.562;13.418;2022-10-15T03:47:20;15.40;;;14.10;;
22826;SDS011;11580;52.562;13.418;2022-10-15T03:49:48;15.57;;;14.07;;
22826;SDS011;11580;52.562;13.418;2022-10-15T03:52:15;15.60;;;14.13;;
22826;SDS011;11580;52.562;13.418;2022-10-15T03:54:45;15.37;;;14.00;;
22826;SDS011;11580;52.562;13.418;2022-10-15T03:57:16;16.10;;;14.50;;
22826;SDS011;11580;52.562;13.418;2022-10-15T03:59:48;16.03;;;13.90;;
22826;SDS011;11580;52.562;13.418;2022-10-15T04:02:17;15.70;;;14.23;;
22826;SDS011;11580;52.562;13.418;2022-10-15T04:04:44;15.10;;;13.70;;
22826;SDS011;11580;52.562;13.418;2022-10-15T04:07:12;15.40;;;14.00;;
22826;SDS011;11580;52.562;13.418;2022-10-15T04:09:39;15.83;;;14.53;;
22826;SDS011;11580;52.562;13.418;2022-10-15T04:12:32;14.83;;;13.50;;
22826;SDS011;11580;52.562;13.418;2022-10-15T04:15:00;14.50;;;13.30;;
22826;SDS011;11580;52.562;13.418;2022-10-15T04:17:27;14.50;;;13.20;;
22826;SDS011;11580;52.562;13.418;2022-10-15T04:19:55;15.27;;;13.97;;
22826;SDS011;11580;52.562;13.418;2022-10-15T04:22:25;15.00;;;13.47;;
22826;SDS011;11580;52.562;13.418;2022-10-15T04:24:56;15.67;;;14.17;;
22826;SDS011;11580;52.562;13.418;2022-10-15T04:27:26;14.63;;;13.33;;
22826;SDS011;11580;52.562;13.418;2022-10-15T04:30:04;15.43;;;14.10;;
22826;SDS011;11580;52.562;13.418;2022-10-15T04:32:36;15.40;;;14.00;;
22826;SDS011;11580;52.562;13.418;2022-10-15T04:35:03;13.77;;;12.57;;
22826;SDS011;11580;52.562;13.418;2022-10-15T04:38:00;13.83;;;12.70;;
22826;SDS011;11580;52.562;13.418;2022-10-15T04:40:48;14.47;;;13.27;;
22826;SDS011;11580;52.562;13.418;2022-10-15T04:43:15;13.40;;;12.30;;
22826;SDS011;11580;52.562;13.418;2022-10-15T04:45:44;14.30;;;13.17;;
22826;SDS011;11580;52.562;13.418;2022-10-15T04:48:15;15.03;;;13.63;;
22826;SDS011;11580;52.562;13.418;2022-10-15T04:50:42;13.70;;;12.53;;
22826;SDS011;11580;52.562;13.418;2022-10-15T04:53:20;14.57;;;13.27;;
22826;SDS011;11580;52.562;13.418;2022-10-15T04:55:50;14.23;;;12.90;;
22826;SDS011;11580;52.562;13.418;2022-10-15T04:58:18;14.00;;;12.77;;
22826;SDS011;11580;52.562;13.418;2022-10-15T05:00:46;13.27;;;12.17;;
22826;SDS011;11580;52.562;13.418;2022-10-15T05:03:41;13.20;;;12.10;;
22826;SDS011;11580;52.562;13.418;2022-10-15T05:06:13;13.80;;;12.60;;
22826;SDS011;11580;52.562;13.418;2022-10-15T05:08:43;14.13;;;12.83;;
22826;SDS011;11580;52.562;13.418;2022-10-15T05:11:17;13.13;;;11.93;;
22826;SDS011;11580;52.562;13.418;2022-10-15T05:13:46;14.90;;;13.60;;
22826;SDS011;11580;52.562;13.418;2022-10-15T05:16:16;13.77;;;12.63;;
22826;SDS011;11580;52.562;13.418;2022-10-15T05:18:46;13.67;;;12.47;;
22826;SDS011;11580;52.562;13.418;2022-10-15T05:21:16;14.70;;;13.50;;
22826;SDS011;11580;52.562;13.418;2022-10-15T05:23:48;14.43;;;13.23;;
22826;SDS011;11580;52.562;13.418;2022-10-15T05:26:27;12.73;;;11.63;;
22826;SDS011;11580;52.562;13.418;2022-10-15T05:28:56;13.17;;;12.07;;
22826;SDS011;11580;52.562;13.418;2022-10-15T05:31:30;13.03;;;11.93;;
22826;SDS011;11580;52.562;13.418;2022-10-15T05:34:12;12.97;;;11.90;;
22826;SDS011;11580;52.562;13.418;2022-10-15T05:36:46;13.00;;;11.90;;
22826;SDS011;11580;52.562;13.418;2022-10-15T05:39:14;12.37;;;11.37;;
22826;SDS011;11580;52.562;13.418;2022-10-15T05:41:43;12.40;;;11.40;;
22826;SDS011;11580;52.562;13.418;2022-10-15T05:44:12;11.40;;;10.40;;
22826;SDS011;11580;52.562;13.418;2022-10-15T05:46:40;13.43;;;12.23;;
22826;SDS011;11580;52.562;13.418;2022-10-15T05:49:12;13.57;;;12.00;;
22826;SDS011;11580;52.562;13.418;2022-10-15T05:51:49;13.20;;;12.10;;
22826;SDS011;11580;52.562;13.418;2022-10-15T05:54:31;12.00;;;10.93;;
22826;SDS011;11580;52.562;13.418;2022-10-15T05:56:58;13.37;;;12.07;;
22826;SDS011;11580;52.562;13.418;2022-10-15T05:59:25;13.00;;;11.90;;
22826;SDS011;11580;52.562;13.418;2022-10-15T06:01:53;12.83;;;11.63;;
22826;SDS011;11580;52.562;13.418;2022-10-15T06:04:20;13.20;;;12.00;;
22826;SDS011;11580;52.562;13.418;2022-10-15T06:06:48;12.47;;;11.47;;
22826;SDS011;11580;52.562;13.418;2022-10-15T06:09:15;12.20;;;11.10;;
22826;SDS011;11580;52.562;13.418;2022-10-15T06:11:42;11.40;;;10.50;;
22826;SDS011;11580;52.562;13.418;2022-10-15T06:14:16;11.70;;;10.70;;
22826;SDS011;11580;52.562;13.418;2022-10-15T06:16:44;12.17;;;11.13;;
22826;SDS011;11580;52.562;13.418;2022-10-15T06:19:16;12.57;;;11.37;;
22826;SDS011;11580;52.562;13.418;2022-10-15T06:21:43;11.40;;;10.40;;
22826;SDS011;11580;52.562;13.418;2022-10-15T06:24:10;11.30;;;10.40;;
22826;SDS011;11580;52.562;13.418;2022-10-15T06:26:37;11.87;;;10.87;;
22826;SDS011;11580;52.562;13.418;2022-10-15T06:29:04;12.30;;;11.17;;
22826;SDS011;11580;52.562;13.418;2022-10-15T06:31:32;12.63;;;11.33;;
22826;SDS011;11580;52.562;13.418;2022-10-15T06:33:59;10.77;;;9.77;;
22826;SDS011;11580;52.562;13.418;2022-10-15T06:36:28;10.40;;;9.60;;
22826;SDS011;11580;52.562;13.418;2022-10-15T06:38:55;11.80;;;10.80;;
22826;SDS011;11580;52.562;13.418;2022-10-15T06:41:22;12.23;;;11.07;;
22826;SDS011;11580;52.562;13.418;2022-10-15T06:43:49;11.33;;;10.50;;
22826;SDS011;11580;52.562;13.418;2022-10-15T06:46:16;11.70;;;10.70;;
22826;SDS011;11580;52.562;13.418;2022-10-15T06:48:43;11.67;;;10.70;;
22826;SDS011;11580;52.562;13.418;2022-10-15T06:51:11;10.90;;;10.00;;
22826;SDS011;11580;52.562;13.418;2022-10-15T06:53:47;11.87;;;10.63;;
22826;SDS011;11580;52.562;13.418;2022-10-15T06:56:14;12.27;;;11.20;;
22826;SDS011;11580;52.562;13.418;2022-10-15T06:58:43;11.40;;;10.50;;
22826;SDS011;11580;52.562;13.418;2022-10-15T07:01:10;11.23;;;10.30;;
22826;SDS011;11580;52.562;13.418;2022-10-15T07:03:37;11.67;;;10.67;;
22826;SDS011;11580;52.562;13.418;2022-10-15T07:06:06;11.60;;;10.70;;
22826;SDS011;11580;52.562;13.418;2022-10-15T07:08:35;11.30;;;10.30;;
22826;SDS011;11580;52.562;13.418;2022-10-15T07:11:04;10.73;;;9.93;;
22826;SDS011;11580;52.562;13.418;2022-10-15T07:13:33;10.67;;;9.77;;
22826;SDS011;11580;52.562;13.418;2022-10-15T07:16:02;10.50;;;9.60;;
22826;SDS011;11580;52.562;13.418;2022-10-15T07:18:30;9.47;;;8.77;;
22826;SDS011;11580;52.562;13.418;2022-10-15T07:20:58;11.20;;;10.37;;
22826;SDS011;11580;52.562;13.418;2022-10-15T07:23:25;11.90;;;10.70;;
22826;SDS011;11580;52.562;13.418;2022-10-15T07:25:52;11.40;;;10.50;;
22826;SDS011;11580;52.562;13.418;2022-10-15T07:28:21;10.87;;;9.87;;
22826;SDS011;11580;52.562;13.418;2022-10-15T07:30:48;11.57;;;10.43;;
22826;SDS011;11580;52.562;13.418;2022-10-15T07:33:16;12.03;;;10.63;;
22826;SDS011;11580;52.562;13.418;2022-10-15T07:35:53;11.10;;;10.10;;
22826;SDS011;11580;52.562;13.418;2022-10-15T07:38:21;11.53;;;10.53;;
22826;SDS011;11580;52.562;13.418;2022-10-15T07:40:48;10.80;;;9.90;;
22826;SDS011;11580;52.562;13.418;2022-10-15T07:43:15;10.70;;;9.60;;
22826;SDS011;11580;52.562;13.418;2022-10-15T07:45:47;11.10;;;10.10;;
22826;SDS011;11580;52.562;13.418;2022-10-15T07:48:14;10.93;;;10.03;;
22826;SDS011;11580;52.562;13.418;2022-10-15T07:50:42;10.67;;;9.77;;
22826;SDS011;11580;52.562;13.418;2022-10-15T07:53:09;12.00;;;10.90;;
22826;SDS011;11580;52.562;13.418;2022-10-15T07:55:38;11.73;;;10.77;;
22826;SDS011;11580;52.562;13.418;2022-10-15T07:58:05;9.80;;;9.10;;
22826;SDS011;11580;52.562;13.418;2022-10-15T08:00:32;11.30;;;10.40;;
22826;SDS011;11580;52.562;13.418;2022-10-15T08:03:01;9.50;;;8.80;;
22826;SDS011;11580;52.562;13.418;2022-10-15T08:05:28;10.30;;;9.50;;
22826;SDS011;11580;52.562;13.418;2022-10-15T08:07:55;10.60;;;9.70;;
22826;SDS011;11580;52.562;13.418;2022-10-15T08:10:22;10.13;;;9.33;;
22826;SDS011;11580;52.562;13.418;2022-10-15T08:12:49;10.30;;;9.50;;
22826;SDS011;11580;52.562;13.418;2022-10-15T08:15:17;10.07;;;9.27;;
22826;SDS011;11580;52.562;13.418;2022-10-15T08:17:44;9.47;;;8.77;;
22826;SDS011;11580;52.562;13.418;2022-10-15T08:20:15;9.40;;;8.63;;
22826;SDS011;11580;52.562;13.418;2022-10-15T08:22:42;9.33;;;8.53;;
22826;SDS011;11580;52.562;13.418;2022-10-15T08:25:09;9.03;;;8.33;;
22826;SDS011;11580;52.562;13.418;2022-10-15T08:27:37;9.03;;;8.33;;
22826;SDS011;11580;52.562;13.418;2022-10-15T08:30:04;8.20;;;7.60;;
22826;SDS011;11580;52.562;13.418;2022-10-15T08:32:32;9.73;;;8.90;;
22826;SDS011;11580;52.562;13.418;2022-10-15T08:34:59;8.77;;;8.07;;
22826;SDS011;11580;52.562;13.418;2022-10-15T08:37:32;9.03;;;8.43;;
22826;SDS011;11580;52.562;13.418;2022-10-15T08:39:59;9.40;;;8.60;;
22826;SDS011;11580;52.562;13.418;2022-10-15T08:42:28;8.80;;;8.10;;
22826;SDS011;11580;52.562;13.418;2022-10-15T08:45:02;9.17;;;8.43;;
22826;SDS011;11580;52.562;13.418;2022-10-15T08:47:39;8.37;;;7.70;;
22826;SDS011;11580;52.562;13.418;2022-10-15T08:50:15;9.10;;;8.40;;
22826;SDS011;11580;52.562;13.418;2022-10-15T08:52:54;9.40;;;8.60;;
22826;SDS011;11580;52.562;13.418;2022-10-15T08:55:26;8.83;;;8.13;;
22826;SDS011;11580;52.562;13.418;2022-10-15T08:58:01;8.87;;;8.17;;
22826;SDS011;11580;52.562;13.418;2022-10-15T09:00:40;8.60;;;8.00;;
22826;SDS011;11580;52.562;13.418;2022-10-15T09:03:17;9.90;;;9.13;;
22826;SDS011;11580;52.562;13.418;2022-10-15T09:06:01;9.47;;;8.77;;
22826;SDS011;11580;52.562;13.418;2022-10-15T09:08:42;8.07;;;7.37;;
22826;SDS011;11580;52.562;13.418;2022-10-15T09:11:34;8.30;;;7.70;;
22826;SDS011;11580;52.562;13.418;2022-10-15T09:14:13;8.23;;;7.63;;
22826;SDS011;11580;52.562;13.418;2022-10-15T09:16:47;8.13;;;7.47;;
22826;SDS011;11580;52.562;13.418;2022-10-15T09:19:16;8.77;;;8.00;;
22826;SDS011;11580;52.562;13.418;2022-10-15T09:21:46;8.60;;;7.83;;
22826;SDS011;11580;52.562;13.418;2022-10-15T09:24:18;9.90;;;9.10;;
22826;SDS011;11580;52.562;13.418;2022-10-15T09:26:57;9.10;;;8.40;;
22826;SDS011;11580;52.562;13.418;2022-10-15T09:29:36;9.03;;;8.20;;
22826;SDS011;11580;52.562;13.418;2022-10-15T09:32:14;9.73;;;8.90;;
22826;SDS011;11580;52.562;13.418;2022-10-15T09:34:50;9.70;;;8.90;;
22826;SDS011;11580;52.562;13.418;2022-10-15T09:37:25;8.63;;;8.03;;
22826;SDS011;11580;52.562;13.418;2022-10-15T09:40:06;8.73;;;8.00;;
22826;SDS011;11580;52.562;13.418;2022-10-15T09:43:01;10.13;;;9.33;;
22826;SDS011;11580;52.562;13.418;2022-10-15T09:45:31;9.57;;;8.87;;
22826;SDS011;11580;52.562;13.418;2022-10-15T09:47:59;9.70;;;8.93;;
22826;SDS011;11580;52.562;13.418;2022-10-15T09:50:33;8.43;;;7.83;;
22826;SDS011;11580;52.562;13.418;2022-10-15T09:53:11;9.53;;;8.83;;
22826;SDS011;11580;52.562;13.418;2022-10-15T09:55:50;8.80;;;8.10;;
22826;SDS011;11580;52.562;13.418;2022-10-15T09:58:28;9.80;;;9.00;;
22826;SDS011;11580;52.562;13.418;2022-10-15T10:01:03;9.30;;;8.60;;
22826;SDS011;11580;52.562;13.418;2022-10-15T10:03:38;8.70;;;8.03;;
22826;SDS011;11580;52.562;13.418;2022-10-15T10:06:06;9.17;;;8.37;;
22826;SDS011;11580;52.562;13.418;2022-10-15T10:08:40;8.73;;;8.13;;
22826;SDS011;11580;52.562;13.418;2022-10-15T10:11:18;7.87;;;7.27;;
22826;SDS011;11580;52.562;13.418;2022-10-15T10:13:52;9.63;;;8.90;;
22826;SDS011;11580;52.562;13.418;2022-10-15T10:16:23;8.67;;;8.07;;
22826;SDS011;11580;52.562;13.418;2022-10-15T10:19:01;7.57;;;7.03;;
22826;SDS011;11580;52.562;13.418;2022-10-15T10:21:36;8.10;;;7.50;;
22826;SDS011;11580;52.562;13.418;2022-10-15T10:24:17;8.07;;;7.47;;
22826;SDS011;11580;52.562;13.418;2022-10-15T10:26:53;7.83;;;7.30;;
22826;SDS011;11580;52.562;13.418;2022-10-15T10:29:21;8.53;;;7.93;;
22826;SDS011;11580;52.562;13.418;2022-10-15T10:31:50;8.07;;;7.47;;
22826;SDS011;11580;52.562;13.418;2022-10-15T10:34:30;8.13;;;7.53;;
22826;SDS011;11580;52.562;13.418;2022-10-15T10:37:01;8.13;;;7.53;;
22826;SDS011;11580;52.562;13.418;2022-10-15T10:39:31;7.90;;;7.30;;
22826;SDS011;11580;52.562;13.418;2022-10-15T10:42:03;7.90;;;7.40;;
22826;SDS011;11580;52.562;13.418;2022-10-15T10:44:34;7.60;;;7.00;;
22826;SDS011;11580;52.562;13.418;2022-10-15T10:47:10;8.17;;;7.57;;
22826;SDS011;11580;52.562;13.418;2022-10-15T10:49:41;7.73;;;7.17;;
22826;SDS011;11580;52.562;13.418;2022-10-15T10:52:20;7.87;;;7.27;;
22826;SDS011;11580;52.562;13.418;2022-10-15T10:54:56;8.17;;;7.57;;
22826;SDS011;11580;52.562;13.418;2022-10-15T10:57:34;7.33;;;6.80;;
22826;SDS011;11580;52.562;13.418;2022-10-15T11:00:11;6.73;;;6.33;;
22826;SDS011;11580;52.562;13.418;2022-10-15T11:02:46;8.33;;;7.60;;
22826;SDS011;11580;52.562;13.418;2022-10-15T11:05:15;7.40;;;6.90;;
22826;SDS011;11580;52.562;13.418;2022-10-15T11:07:50;7.13;;;6.63;;
22826;SDS011;11580;52.562;13.418;2022-10-15T11:10:31;7.50;;;6.97;;
22826;SDS011;11580;52.562;13.418;2022-10-15T11:13:12;7.00;;;6.40;;
22826;SDS011;11580;52.562;13.418;2022-10-15T11:16:01;7.40;;;6.90;;
22826;SDS011;11580;52.562;13.418;2022-10-15T11:18:43;6.80;;;6.30;;
22826;SDS011;11580;52.562;13.418;2022-10-15T11:21:24;6.13;;;5.73;;
22826;SDS011;11580;52.562;13.418;2022-10-15T11:24:10;6.80;;;6.30;;
22826;SDS011;11580;52.562;13.418;2022-10-15T11:26:53;6.80;;;6.30;;
22826;SDS011;11580;52.562;13.418;2022-10-15T11:29:44;6.33;;;5.93;;
22826;SDS011;11580;52.562;13.418;2022-10-15T11:32:28;6.80;;;6.30;;
22826;SDS011;11580;52.562;13.418;2022-10-15T11:35:15;6.43;;;5.93;;
22826;SDS011;11580;52.562;13.418;2022-10-15T11:38:00;6.40;;;6.00;;
22826;SDS011;11580;52.562;13.418;2022-10-15T11:40:44;7.10;;;6.60;;
22826;SDS011;11580;52.562;13.418;2022-10-15T11:43:31;5.77;;;5.37;;
22826;SDS011;11580;52.562;13.418;2022-10-15T11:46:23;5.83;;;5.40;;
22826;SDS011;11580;52.562;13.418;2022-10-15T11:49:03;6.30;;;5.90;;
22826;SDS011;11580;52.562;13.418;2022-10-15T11:51:53;6.43;;;6.03;;
22826;SDS011;11580;52.562;13.418;2022-10-15T11:54:37;5.97;;;5.57;;
22826;SDS011;11580;52.562;13.418;2022-10-15T11:57:12;6.17;;;5.77;;
22826;SDS011;11580;52.562;13.418;2022-10-15T11:59:43;6.33;;;5.83;;
22826;SDS011;11580;52.562;13.418;2022-10-15T12:02:18;5.80;;;5.40;;
22826;SDS011;11580;52.562;13.418;2022-10-15T12:04:55;5.53;;;5.13;;
22826;SDS011;11580;52.562;13.418;2022-10-15T12:07:29;5.37;;;5.00;;
22826;SDS011;11580;52.562;13.418;2022-10-15T12:10:12;4.73;;;4.43;;
22826;SDS011;11580;52.562;13.418;2022-10-15T12:12:58;5.10;;;4.70;;
22826;SDS011;11580;52.562;13.418;2022-10-15T12:15:34;5.10;;;4.80;;
22826;SDS011;11580;52.562;13.418;2022-10-15T12:18:13;4.93;;;4.53;;
22826;SDS011;11580;52.562;13.418;2022-10-15T12:20:50;4.70;;;4.40;;
22826;SDS011;11580;52.562;13.418;2022-10-15T12:23:23;5.27;;;4.97;;
22826;SDS011;11580;52.562;13.418;2022-10-15T12:26:08;4.33;;;4.03;;
22826;SDS011;11580;52.562;13.418;2022-10-15T12:28:56;5.00;;;4.50;;
22826;SDS011;11580;52.562;13.418;2022-10-15T12:31:41;4.90;;;4.60;;
22826;SDS011;11580;52.562;13.418;2022-10-15T12:34:29;4.60;;;4.33;;
22826;SDS011;11580;52.562;13.418;2022-10-15T12:37:14;5.20;;;4.90;;
22826;SDS011;11580;52.562;13.418;2022-10-15T12:39:43;4.93;;;4.50;;
22826;SDS011;11580;52.562;13.418;2022-10-15T12:42:18;4.80;;;4.50;;
22826;SDS011;11580;52.562;13.418;2022-10-15T12:44:50;4.53;;;4.23;;
22826;SDS011;11580;52.562;13.418;2022-10-15T12:50:22;4.70;;;4.40;;
22826;SDS011;11580;52.562;13.418;2022-10-15T12:52:53;4.37;;;4.10;;
22826;SDS011;11580;52.562;13.418;2022-10-15T12:55:29;4.40;;;3.80;;
22826;SDS011;11580;52.562;13.418;2022-10-15T12:58:00;4.50;;;4.20;;
22826;SDS011;11580;52.562;13.418;2022-10-15T13:00:35;3.50;;;3.30;;
22826;SDS011;11580;52.562;13.418;2022-10-15T13:03:20;3.67;;;3.47;;
22826;SDS011;11580;52.562;13.418;2022-10-15T13:06:13;4.03;;;3.80;;
22826;SDS011;11580;52.562;13.418;2022-10-15T13:08:56;3.40;;;3.20;;
22826;SDS011;11580;52.562;13.418;2022-10-15T13:11:39;3.73;;;3.43;;
22826;SDS011;11580;52.562;13.418;2022-10-15T13:14:17;3.57;;;3.37;;
22826;SDS011;11580;52.562;13.418;2022-10-15T13:16:53;3.67;;;3.47;;
22826;SDS011;11580;52.562;13.418;2022-10-15T13:19:24;3.13;;;2.93;;
22826;SDS011;11580;52.562;13.418;2022-10-15T13:21:57;3.37;;;3.17;;
22826;SDS011;11580;52.562;13.418;2022-10-15T13:24:28;2.90;;;2.70;;
22826;SDS011;11580;52.562;13.418;2022-10-15T13:27:12;3.23;;;3.03;;
22826;SDS011;11580;52.562;13.418;2022-10-15T13:29:51;3.40;;;3.20;;
22826;SDS011;11580;52.562;13.418;2022-10-15T13:32:24;3.47;;;3.27;;
22826;SDS011;11580;52.562;13.418;2022-10-15T13:34:55;4.03;;;3.63;;
22826;SDS011;11580;52.562;13.418;2022-10-15T13:37:27;3.00;;;2.80;;
22826;SDS011;11580;52.562;13.418;2022-10-15T13:39:57;3.00;;;2.80;;
22826;SDS011;11580;52.562;13.418;2022-10-15T13:42:25;3.00;;;2.80;;
22826;SDS011;11580;52.562;13.418;2022-10-15T13:44:56;3.90;;;3.30;;
22826;SDS011;11580;52.562;13.418;2022-10-15T13:47:29;3.30;;;3.10;;
22826;SDS011;11580;52.562;13.418;2022-10-15T13:50:18;2.80;;;2.50;;
22826;SDS011;11580;52.562;13.418;2022-10-15T13:52:51;2.60;;;2.50;;
22826;SDS011;11580;52.562;13.418;2022-10-15T13:55:23;2.57;;;2.40;;
22826;SDS011;11580;52.562;13.418;2022-10-15T13:57:57;2.70;;;2.50;;
22826;SDS011;11580;52.562;13.418;2022-10-15T14:00:28;2.83;;;2.63;;
22826;SDS011;11580;52.562;13.418;2022-10-15T14:03:06;2.93;;;2.73;;
22826;SDS011;11580;52.562;13.418;2022-10-15T14:05:46;2.93;;;2.73;;
22826;SDS011;11580;52.562;13.418;2022-10-15T14:08:18;2.90;;;2.60;;
22826;SDS011;11580;52.562;13.418;2022-10-15T14:10:51;2.80;;;2.60;;
22826;SDS011;11580;52.562;13.418;2022-10-15T14:13:22;2.43;;;2.33;;
22826;SDS011;11580;52.562;13.418;2022-10-15T14:16:00;2.60;;;2.50;;
22826;SDS011;11580;52.562;13.418;2022-10-15T14:18:41;2.70;;;2.53;;
22826;SDS011;11580;52.562;13.418;2022-10-15T14:21:12;2.47;;;2.37;;
22826;SDS011;11580;52.562;13.418;2022-10-15T14:23:44;2.63;;;2.43;;
22826;SDS011;11580;52.562;13.418;2022-10-15T14:26:14;2.73;;;2.63;;
22826;SDS011;11580;52.562;13.418;2022-10-15T14:28:49;2.90;;;2.70;;
22826;SDS011;11580;52.562;13.418;2022-10-15T14:31:28;3.13;;;2.93;;
22826;SDS011;11580;52.562;13.418;2022-10-15T14:36:55;2.77;;;2.57;;
22826;SDS011;11580;52.562;13.418;2022-10-15T14:39:28;3.13;;;2.93;;
22826;SDS011;11580;52.562;13.418;2022-10-15T14:41:59;3.10;;;2.90;;
22826;SDS011;11580;52.562;13.418;2022-10-15T14:44:41;3.10;;;2.90;;
22826;SDS011;11580;52.562;13.418;2022-10-15T14:47:14;2.83;;;2.73;;
22826;SDS011;11580;52.562;13.418;2022-10-15T14:49:46;3.43;;;2.90;;
22826;SDS011;11580;52.562;13.418;2022-10-15T14:52:15;3.07;;;2.87;;
22826;SDS011;11580;52.562;13.418;2022-10-15T14:54:48;3.13;;;2.93;;
22826;SDS011;11580;52.562;13.418;2022-10-15T14:57:28;3.03;;;2.83;;
22826;SDS011;11580;52.562;13.418;2022-10-15T15:00:00;3.13;;;2.93;;
22826;SDS011;11580;52.562;13.418;2022-10-15T15:02:30;3.23;;;3.00;;